createdAt,value
2017-08-18T00:00:20.813Z,71.86
2017-08-18T00:01:01.611Z,71.67
2017-08-18T00:01:42.411Z,71.77
2017-08-18T00:02:23.210Z,71.96
2017-08-18T00:03:04.012Z,71.38
2017-08-18T00:03:44.813Z,72.06
2017-08-18T00:04:25.733Z,71.48
2017-08-18T00:05:06.533Z,71.48
2017-08-18T00:05:47.335Z,72.55
2017-08-18T00:06:28.133Z,71.96
2017-08-18T00:07:08.933Z,71.64
2017-08-18T00:07:49.734Z,71.38
2017-08-18T00:08:30.534Z,71.77
2017-08-18T00:10:28.543Z,71.77
2017-08-18T00:11:09.417Z,71.83
2017-08-18T00:11:50.216Z,71.67
2017-08-18T00:12:31.021Z,71.58
2017-08-18T00:13:11.816Z,71.54
2017-08-18T00:13:52.618Z,72.06
2017-08-18T00:14:33.417Z,71.67
2017-08-18T00:15:14.217Z,72.06
2017-08-18T00:15:55.018Z,71.86
2017-08-18T00:16:35.818Z,72.25
2017-08-18T00:17:16.619Z,71.77
2017-08-18T00:17:57.440Z,71.86
2017-08-18T00:18:38.218Z,71.86
2017-08-18T00:19:19.019Z,72.02
2017-08-18T00:19:59.822Z,72.06
2017-08-18T00:20:40.620Z,72.02
2017-08-18T00:21:21.915Z,72.06
2017-08-18T00:22:02.340Z,71.38
2017-08-18T00:22:43.141Z,71.93
2017-08-18T00:23:24.061Z,71.73
2017-08-18T00:24:04.874Z,71.34
2017-08-18T00:26:31.503Z,71.86
2017-08-18T00:27:12.425Z,71.67
2017-08-18T00:27:53.224Z,72.12
2017-08-18T00:28:34.023Z,71.86
2017-08-18T00:29:14.824Z,72.02
2017-08-18T00:29:55.623Z,72.06
2017-08-18T00:30:37.408Z,71.96
2017-08-18T00:31:17.224Z,71.77
2017-08-18T00:31:58.024Z,71.58
2017-08-18T00:32:38.825Z,71.67
2017-08-18T00:33:19.625Z,71.48
2017-08-18T00:34:00.444Z,71.48
2017-08-18T00:34:41.346Z,71.96
2017-08-18T00:35:22.147Z,71.67
2017-08-18T00:36:02.947Z,71.86
2017-08-18T00:36:43.867Z,72.64
2017-08-18T00:37:24.666Z,72.25
2017-08-18T00:38:05.468Z,72.25
2017-08-18T00:38:46.269Z,72.55
2017-08-18T00:39:27.068Z,72.22
2017-08-18T00:40:07.869Z,72.16
2017-08-18T00:40:48.670Z,72.51
2017-08-18T00:41:29.468Z,72.31
2017-08-18T00:42:10.277Z,72.12
2017-08-18T00:42:51.073Z,72.51
2017-08-18T00:43:31.870Z,72.31
2017-08-18T00:44:12.669Z,72.45
2017-08-18T00:44:53.471Z,72.45
2017-08-18T00:45:34.270Z,72.22
2017-08-18T00:46:15.071Z,72.41
2017-08-18T00:46:55.871Z,72.45
2017-08-18T00:47:36.672Z,72.41
2017-08-18T00:48:17.472Z,72.16
2017-08-18T00:48:58.273Z,72.31
2017-08-18T00:49:39.072Z,72.12
2017-08-18T00:50:19.873Z,72.61
2017-08-18T00:51:00.675Z,72.55
2017-08-18T00:51:41.473Z,72.51
2017-08-18T00:52:22.273Z,72.55
2017-08-18T00:53:03.075Z,72.61
2017-08-18T00:53:43.875Z,72.41
2017-08-18T00:54:24.675Z,72.8
2017-08-18T00:55:05.480Z,72.71
2017-08-18T00:55:46.276Z,72.8
2017-08-18T00:56:27.076Z,73.03
2017-08-18T00:57:07.876Z,72.99
2017-08-18T00:57:48.676Z,72.89
2017-08-18T00:58:29.476Z,72.71
2017-08-18T00:59:10.279Z,72.41
2017-08-18T00:59:51.088Z,73.19
2017-08-18T01:00:31.891Z,73.09
2017-08-18T01:01:12.558Z,72.8
2017-08-18T01:01:53.361Z,73.38
2017-08-18T01:02:34.159Z,73.38
2017-08-18T01:03:14.959Z,73.48
2017-08-18T01:03:55.759Z,73.48
2017-08-18T01:04:36.560Z,73.58
2017-08-18T01:05:17.360Z,73.28
2017-08-18T01:05:58.181Z,73.48
2017-08-18T01:06:38.960Z,73.77
2017-08-18T01:07:19.771Z,73.28
2017-08-18T01:08:00.571Z,73.28
2017-08-18T01:08:41.361Z,73.48
2017-08-18T01:09:22.161Z,73.67
2017-08-18T01:10:02.965Z,73.67
2017-08-18T01:12:00.923Z,73.38
2017-08-18T01:12:41.724Z,73.28
2017-08-18T01:13:23.123Z,73.48
2017-08-18T01:14:03.924Z,73.48
2017-08-18T01:14:44.723Z,73.67
2017-08-18T01:15:25.524Z,73.58
2017-08-18T01:16:06.327Z,73.38
2017-08-18T01:16:47.126Z,73.38
2017-08-18T01:17:27.924Z,73.58
2017-08-18T01:18:08.726Z,73.58
2017-08-18T01:18:49.526Z,73.71
2017-08-18T01:19:30.326Z,73.86
2017-08-18T01:20:11.126Z,73.58
2017-08-18T01:20:51.927Z,73.48
2017-08-18T01:21:32.726Z,73.38
2017-08-18T01:22:13.527Z,73.58
2017-08-18T01:22:54.328Z,73.48
2017-08-18T01:23:35.128Z,73.58
2017-08-18T01:24:15.928Z,73.48
2017-08-18T01:24:56.728Z,73.58
2017-08-18T01:25:37.533Z,72.99
2017-08-18T01:26:18.329Z,73.48
2017-08-18T01:26:59.130Z,72.89
2017-08-18T01:27:39.930Z,72.8
2017-08-18T01:28:20.731Z,73.09
2017-08-18T01:29:01.530Z,73.09
2017-08-18T01:29:42.331Z,73.48
2017-08-18T01:30:23.130Z,72.89
2017-08-18T01:31:03.931Z,72.8
2017-08-18T01:31:44.731Z,72.61
2017-08-18T01:32:25.532Z,72.61
2017-08-18T01:33:06.332Z,72.89
2017-08-18T01:33:47.133Z,72.71
2017-08-18T01:34:27.932Z,72.61
2017-08-18T01:35:08.734Z,72.61
2017-08-18T01:35:54.244Z,72.99
2017-08-18T01:36:35.133Z,72.8
2017-08-18T01:37:15.933Z,72.89
2017-08-18T01:37:56.734Z,73.09
2017-08-18T01:38:37.536Z,72.8
2017-08-18T01:39:18.336Z,72.89
2017-08-18T01:39:59.134Z,72.89
2017-08-18T01:40:39.935Z,72.41
2017-08-18T01:41:20.736Z,72.71
2017-08-18T01:42:01.535Z,72.61
2017-08-18T01:42:42.337Z,72.61
2017-08-18T01:43:23.137Z,72.61
2017-08-18T01:44:03.937Z,72.99
2017-08-18T01:44:44.737Z,72.89
2017-08-18T01:45:25.541Z,72.71
2017-08-18T01:46:06.339Z,72.22
2017-08-18T01:46:47.138Z,72.89
2017-08-18T01:47:27.939Z,72.89
2017-08-18T01:48:08.739Z,72.89
2017-08-18T01:48:49.539Z,72.89
2017-08-18T01:49:30.339Z,72.8
2017-08-18T01:50:11.140Z,72.8
2017-08-18T01:50:51.940Z,72.71
2017-08-18T01:51:32.741Z,72.61
2017-08-18T01:52:13.541Z,72.89
2017-08-18T01:52:54.343Z,72.61
2017-08-18T01:53:35.140Z,72.61
2017-08-18T01:54:15.942Z,72.51
2017-08-18T01:54:56.742Z,72.41
2017-08-18T01:55:37.563Z,72.51
2017-08-18T01:56:18.343Z,72.71
2017-08-18T01:56:59.143Z,72.41
2017-08-18T01:57:39.943Z,72.71
2017-08-18T01:58:20.744Z,72.8
2017-08-18T01:59:01.545Z,72.8
2017-08-18T01:59:42.347Z,72.8
2017-08-18T02:00:23.145Z,72.8
2017-08-18T02:01:03.945Z,72.89
2017-08-18T02:01:44.745Z,72.89
2017-08-18T02:02:25.546Z,72.61
2017-08-18T02:03:06.347Z,72.8
2017-08-18T02:03:47.147Z,72.89
2017-08-18T02:04:27.946Z,72.89
2017-08-18T02:05:08.746Z,72.89
2017-08-18T02:05:49.546Z,72.8
2017-08-18T02:06:30.347Z,72.71
2017-08-18T02:07:11.148Z,72.8
2017-08-18T02:07:51.947Z,72.8
2017-08-18T02:08:32.748Z,72.71
2017-08-18T02:09:13.549Z,72.71
2017-08-18T02:09:54.350Z,72.51
2017-08-18T02:10:35.149Z,72.41
2017-08-18T02:11:15.948Z,72.61
2017-08-18T02:11:56.750Z,72.51
2017-08-18T02:12:37.550Z,72.41
2017-08-18T02:13:18.351Z,72.71
2017-08-18T02:13:59.152Z,72.41
2017-08-18T02:14:39.951Z,72.71
2017-08-18T02:15:20.752Z,72.51
2017-08-18T02:16:01.552Z,72.71
2017-08-18T02:16:42.352Z,72.71
2017-08-18T02:17:23.152Z,72.71
2017-08-18T02:18:03.952Z,72.41
2017-08-18T02:18:44.753Z,72.71
2017-08-18T02:19:25.554Z,72.51
2017-08-18T02:21:13.193Z,72.02
2017-08-18T02:21:53.994Z,72.02
2017-08-18T02:22:34.793Z,72.22
2017-08-18T02:24:32.756Z,72.02
2017-08-18T02:25:13.556Z,72.02
2017-08-18T02:27:31.797Z,72.61
2017-08-18T02:28:12.597Z,72.61
2017-08-18T02:28:53.398Z,72.41
2017-08-18T02:29:34.197Z,72.61
2017-08-18T02:30:14.999Z,72.12
2017-08-18T02:30:55.800Z,72.02
2017-08-18T02:31:36.599Z,72.61
2017-08-18T02:32:17.398Z,72.61
2017-08-18T02:32:58.201Z,72.22
2017-08-18T02:33:39.000Z,72.41
2017-08-18T02:34:19.800Z,72.31
2017-08-18T02:35:00.601Z,72.51
2017-08-18T02:35:41.401Z,72.22
2017-08-18T02:36:22.201Z,72.22
2017-08-18T02:37:03.002Z,72.02
2017-08-18T02:37:43.802Z,71.83
2017-08-18T02:38:24.603Z,72.02
2017-08-18T02:39:05.402Z,71.93
2017-08-18T02:39:46.202Z,72.61
2017-08-18T02:40:27.002Z,72.31
2017-08-18T02:41:07.803Z,72.22
2017-08-18T02:41:48.603Z,72.51
2017-08-18T02:42:29.404Z,72.41
2017-08-18T02:43:10.204Z,72.51
2017-08-18T02:43:51.007Z,72.12
2017-08-18T02:44:31.805Z,72.22
2017-08-18T02:45:12.604Z,72.22
2017-08-18T02:45:53.405Z,72.02
2017-08-18T02:46:34.206Z,72.12
2017-08-18T02:47:29.765Z,72.31
2017-08-18T02:48:10.566Z,72.51
2017-08-18T02:48:51.367Z,72.02
2017-08-18T02:49:32.166Z,72.61
2017-08-18T02:50:12.969Z,72.02
2017-08-18T02:50:53.768Z,72.41
2017-08-18T02:51:49.446Z,72.12
2017-08-18T02:52:30.248Z,71.64
2017-08-18T02:53:11.049Z,71.73
2017-08-18T02:53:51.857Z,71.73
2017-08-18T02:54:32.649Z,71.54
2017-08-18T02:55:13.450Z,71.93
2017-08-18T02:55:54.249Z,71.93
2017-08-18T02:56:35.050Z,72.12
2017-08-18T02:57:15.851Z,72.02
2017-08-18T02:57:56.650Z,71.93
2017-08-18T02:58:37.450Z,71.83
2017-08-18T02:59:18.250Z,72.22
2017-08-18T02:59:59.052Z,71.73
2017-08-18T03:00:39.853Z,72.02
2017-08-18T03:01:36.253Z,71.93
2017-08-18T03:02:17.054Z,72.22
2017-08-18T03:02:57.853Z,72.02
2017-08-18T03:03:38.653Z,71.93
2017-08-18T03:04:19.454Z,72.02
2017-08-18T03:05:00.254Z,72.02
2017-08-18T03:05:41.062Z,71.83
2017-08-18T03:06:21.855Z,72.02
2017-08-18T03:07:02.655Z,71.64
2017-08-18T03:07:43.455Z,71.93
2017-08-18T03:08:24.254Z,71.83
2017-08-18T03:09:05.056Z,71.83
2017-08-18T03:09:45.855Z,71.83
2017-08-18T03:10:26.680Z,71.83
2017-08-18T03:12:44.896Z,71.54
2017-08-18T03:13:25.698Z,71.64
2017-08-18T03:14:06.498Z,71.83
2017-08-18T03:14:47.298Z,71.54
2017-08-18T03:15:28.098Z,71.25
2017-08-18T03:16:08.898Z,71.06
2017-08-18T03:16:49.698Z,71.83
2017-08-18T03:17:30.500Z,71.34
2017-08-18T03:18:11.300Z,71.54
2017-08-18T03:18:52.101Z,71.44
2017-08-18T03:19:32.901Z,71.25
2017-08-18T03:20:13.719Z,71.25
2017-08-18T03:20:54.501Z,70.67
2017-08-18T03:21:35.306Z,70.57
2017-08-18T03:22:17.823Z,70.86
2017-08-18T03:22:58.843Z,70.96
2017-08-18T03:23:39.862Z,70.57
2017-08-18T03:24:20.303Z,70.76
2017-08-18T03:26:34.948Z,71.44
2017-08-18T03:27:15.984Z,71.25
2017-08-18T03:27:57.024Z,71.34
2017-08-18T03:28:37.945Z,71.06
2017-08-18T03:29:20.436Z,71.44
2017-08-18T03:30:00.024Z,71.44
2017-08-18T03:30:41.080Z,71.34
2017-08-18T03:31:21.986Z,71.06
2017-08-18T03:32:02.904Z,70.96
2017-08-18T03:32:43.737Z,71.06
2017-08-18T03:33:24.746Z,71.06
2017-08-18T03:34:05.787Z,71.15
2017-08-18T03:34:46.587Z,71.25
2017-08-18T03:35:27.389Z,70.96
2017-08-18T03:36:08.186Z,71.25
2017-08-18T03:36:48.988Z,71.15
2017-08-18T03:37:30.150Z,70.96
2017-08-18T03:38:11.188Z,71.15
2017-08-18T03:38:51.989Z,71.15
2017-08-18T03:43:54.632Z,71.83
2017-08-18T03:44:35.431Z,71.64
2017-08-18T03:46:48.512Z,71.44
2017-08-18T03:47:29.313Z,71.83
2017-08-18T03:48:10.112Z,71.64
2017-08-18T03:48:50.913Z,71.73
2017-08-18T03:49:31.834Z,70.67
2017-08-18T03:50:12.633Z,70.76
2017-08-18T03:50:53.434Z,70.47
2017-08-18T03:51:34.235Z,68.82
2017-08-18T03:52:15.035Z,67.57
2017-08-18T03:52:56.694Z,67.27
2017-08-18T03:53:37.285Z,67.34
2017-08-18T03:54:17.870Z,67.63
2017-08-18T03:54:58.457Z,67.72
2017-08-18T03:55:39.038Z,67.88
2017-08-18T03:56:19.631Z,68.08
2017-08-18T03:57:00.215Z,68.18
2017-08-18T03:57:40.793Z,67.88
2017-08-18T03:58:21.384Z,68.66
2017-08-18T03:59:01.968Z,68.66
2017-08-18T03:59:42.543Z,68.43
2017-08-18T04:00:23.132Z,68.43
2017-08-18T04:01:15.406Z,68.43
2017-08-18T04:01:55.970Z,68.53
2017-08-18T04:02:36.554Z,68.33
2017-08-18T04:03:17.131Z,68.73
2017-08-18T04:03:57.723Z,68.73
2017-08-18T04:04:38.311Z,68.82
2017-08-18T04:05:18.892Z,69.08
2017-08-18T04:06:14.064Z,69.08
2017-08-18T04:06:54.656Z,69.08
2017-08-18T04:07:35.245Z,68.98
2017-08-18T04:08:15.828Z,69.08
2017-08-18T04:08:56.462Z,68.88
2017-08-18T04:09:37.031Z,69.08
2017-08-18T04:10:17.619Z,69.08
2017-08-18T04:10:58.180Z,69.56
2017-08-18T04:11:38.756Z,69.08
2017-08-18T04:12:19.349Z,68.88
2017-08-18T04:12:59.920Z,69.08
2017-08-18T04:13:40.501Z,69.08
2017-08-18T04:14:21.074Z,68.59
2017-08-18T04:15:01.674Z,68.49
2017-08-18T04:15:42.259Z,68.49
2017-08-18T04:16:22.846Z,68.11
2017-08-18T04:17:03.422Z,68.4
2017-08-18T04:17:44.013Z,68.21
2017-08-18T04:18:24.599Z,68.4
2017-08-18T04:19:05.189Z,68.59
2017-08-18T04:19:45.769Z,68.69
2017-08-18T04:20:26.355Z,68.88
2017-08-18T04:21:06.941Z,69.17
2017-08-18T04:21:47.535Z,68.49
2017-08-18T04:22:28.121Z,68.59
2017-08-18T04:23:08.711Z,68.59
2017-08-18T04:23:49.290Z,68.4
2017-08-18T04:24:29.877Z,67.91
2017-08-18T04:25:10.467Z,67.72
2017-08-18T04:25:51.059Z,68.01
2017-08-18T04:26:31.646Z,68.21
2017-08-18T04:27:12.225Z,67.72
2017-08-18T04:27:52.804Z,68.21
2017-08-18T04:28:49.148Z,68.21
2017-08-18T04:29:29.736Z,67.72
2017-08-18T04:30:10.313Z,67.91
2017-08-18T04:30:50.898Z,67.82
2017-08-18T04:31:31.486Z,67.82
2017-08-18T04:32:12.077Z,67.82
2017-08-18T04:32:52.655Z,68.21
2017-08-18T04:33:33.229Z,68.37
2017-08-18T04:34:13.814Z,68.01
2017-08-18T04:34:54.402Z,68.46
2017-08-18T04:35:34.981Z,68.37
2017-08-18T04:36:15.578Z,68.49
2017-08-18T04:36:56.169Z,68.27
2017-08-18T04:37:36.752Z,68.56
2017-08-18T04:38:17.326Z,68.46
2017-08-18T04:38:57.904Z,68.56
2017-08-18T04:39:38.472Z,68.56
2017-08-18T04:40:19.049Z,68.46
2017-08-18T04:40:59.633Z,68.56
2017-08-18T04:41:40.221Z,68.11
2017-08-18T04:42:20.805Z,68.46
2017-08-18T04:43:01.385Z,68.4
2017-08-18T04:43:41.959Z,68.46
2017-08-18T04:44:22.527Z,68.37
2017-08-18T04:45:03.112Z,68.11
2017-08-18T04:45:50.284Z,68.21
2017-08-18T04:46:30.865Z,68.01
2017-08-18T04:47:11.446Z,68.46
2017-08-18T04:47:52.025Z,68.08
2017-08-18T04:48:32.607Z,67.79
2017-08-18T04:49:13.196Z,68.37
2017-08-18T04:51:05.870Z,68.4
2017-08-18T04:52:58.475Z,68.46
2017-08-18T04:53:39.040Z,68.46
2017-08-18T04:54:19.625Z,68.37
2017-08-18T04:55:00.210Z,68.46
2017-08-18T04:55:40.793Z,68.46
2017-08-18T04:56:21.370Z,68.27
2017-08-18T04:57:01.950Z,68.46
2017-08-18T04:57:42.540Z,68.46
2017-08-18T04:58:23.122Z,68.27
2017-08-18T04:59:03.712Z,68.37
2017-08-18T04:59:44.296Z,68.17
2017-08-18T05:00:24.878Z,68.01
2017-08-18T05:01:05.468Z,68.08
2017-08-18T05:01:46.054Z,68.11
2017-08-18T05:03:43.799Z,68.4
2017-08-18T05:04:24.384Z,68.46
2017-08-18T05:05:04.964Z,68.17
2017-08-18T05:05:45.556Z,68.11
2017-08-18T05:06:26.144Z,67.91
2017-08-18T05:07:06.724Z,67.53
2017-08-18T05:07:47.311Z,67.91
2017-08-18T05:08:27.894Z,68.17
2017-08-18T05:09:08.488Z,68.11
2017-08-18T05:09:49.078Z,68.01
2017-08-18T05:10:29.667Z,68.3
2017-08-18T05:11:10.252Z,68.3
2017-08-18T05:12:09.518Z,68.01
2017-08-18T05:12:50.102Z,67.63
2017-08-18T05:13:30.682Z,68.3
2017-08-18T05:14:11.264Z,68.11
2017-08-18T05:14:51.851Z,68.21
2017-08-18T05:15:32.433Z,68.21
2017-08-18T05:16:13.013Z,68.21
2017-08-18T05:16:53.592Z,68.21
2017-08-18T05:17:34.187Z,68.3
2017-08-18T05:18:14.773Z,68.08
2017-08-18T05:18:55.366Z,67.72
2017-08-18T05:19:36.006Z,67.72
2017-08-18T05:20:16.828Z,67.63
2017-08-18T05:20:57.550Z,68.11
2017-08-18T05:21:38.134Z,67.82
2017-08-18T05:22:18.722Z,67.63
2017-08-18T05:22:59.299Z,67.82
2017-08-18T05:23:39.878Z,67.82
2017-08-18T05:24:20.467Z,67.72
2017-08-18T05:25:01.056Z,67.63
2017-08-18T05:25:41.637Z,67.63
2017-08-18T05:26:22.224Z,67.82
2017-08-18T05:27:02.805Z,67.53
2017-08-18T05:27:43.386Z,67.72
2017-08-18T05:28:23.973Z,67.63
2017-08-18T05:29:04.571Z,67.82
2017-08-18T05:29:45.143Z,68.21
2017-08-18T05:30:25.727Z,67.82
2017-08-18T05:31:06.300Z,67.82
2017-08-18T05:31:46.888Z,67.82
2017-08-18T05:32:27.471Z,67.63
2017-08-18T05:33:08.060Z,67.82
2017-08-18T05:33:48.624Z,67.14
2017-08-18T05:34:29.208Z,67.82
2017-08-18T05:35:09.786Z,67.72
2017-08-18T05:35:50.377Z,67.82
2017-08-18T05:36:30.959Z,68.01
2017-08-18T05:37:11.531Z,68.59
2017-08-18T05:37:52.123Z,68.49
2017-08-18T05:38:32.705Z,68.88
2017-08-18T05:39:13.292Z,68.59
2017-08-18T05:39:53.878Z,68.79
2017-08-18T05:40:34.465Z,68.49
2017-08-18T05:41:15.052Z,68.69
2017-08-18T05:41:55.642Z,68.59
2017-08-18T05:42:36.231Z,68.63
2017-08-18T05:43:16.812Z,68.43
2017-08-18T05:43:57.407Z,68.24
2017-08-18T05:44:37.989Z,68.05
2017-08-18T05:45:18.564Z,68.15
2017-08-18T05:45:59.148Z,68.43
2017-08-18T05:46:39.733Z,68.15
2017-08-18T05:47:20.323Z,68.3
2017-08-18T05:48:00.909Z,68.15
2017-08-18T05:48:41.488Z,68.24
2017-08-18T05:49:22.067Z,68.43
2017-08-18T05:50:02.652Z,68.05
2017-08-18T05:50:43.239Z,68.43
2017-08-18T05:51:23.823Z,68.33
2017-08-18T05:52:04.409Z,68.05
2017-08-18T05:52:44.995Z,68.15
2017-08-18T05:53:25.573Z,68.53
2017-08-18T05:54:06.152Z,68.24
2017-08-18T05:54:46.736Z,68.33
2017-08-18T05:55:27.305Z,68.24
2017-08-18T05:56:07.898Z,68.24
2017-08-18T05:56:57.543Z,68.43
2017-08-18T05:57:38.136Z,68.33
2017-08-18T05:58:18.716Z,67.85
2017-08-18T05:58:59.300Z,67.85
2017-08-18T05:59:39.885Z,67.85
2017-08-18T06:00:20.468Z,67.85
2017-08-18T06:01:01.051Z,67.66
2017-08-18T06:01:41.638Z,67.66
2017-08-18T06:02:22.219Z,67.66
2017-08-18T06:03:02.805Z,67.46
2017-08-18T06:03:43.393Z,67.85
2017-08-18T06:04:23.981Z,67.88
2017-08-18T06:05:04.561Z,67.88
2017-08-18T06:05:45.142Z,67.11
2017-08-18T06:06:25.728Z,67.3
2017-08-18T06:07:06.321Z,67.3
2017-08-18T06:07:46.907Z,67.5
2017-08-18T06:08:27.492Z,67.11
2017-08-18T06:09:08.075Z,67.21
2017-08-18T06:09:48.660Z,67.11
2017-08-18T06:10:29.237Z,67.4
2017-08-18T06:11:09.816Z,67.11
2017-08-18T06:11:50.395Z,67.4
2017-08-18T06:12:30.975Z,67.4
2017-08-18T06:13:11.545Z,67.5
2017-08-18T06:13:52.136Z,67.3
2017-08-18T06:14:32.731Z,67.02
2017-08-18T06:15:13.311Z,67.5
2017-08-18T06:15:53.882Z,67.11
2017-08-18T06:16:34.474Z,67.3
2017-08-18T06:17:15.056Z,67.4
2017-08-18T06:17:55.656Z,67.3
2017-08-18T06:18:36.238Z,67.3
2017-08-18T06:19:16.823Z,67.3
2017-08-18T06:19:57.403Z,67.3
2017-08-18T06:20:37.997Z,67.21
2017-08-18T06:21:18.581Z,67.34
2017-08-18T06:21:59.164Z,67.3
2017-08-18T06:22:39.751Z,67.3
2017-08-18T06:23:20.343Z,67.11
2017-08-18T06:24:00.931Z,67.02
2017-08-18T06:24:56.475Z,66.95
2017-08-18T06:25:37.060Z,67.05
2017-08-18T06:26:17.645Z,67.44
2017-08-18T06:28:35.645Z,67.14
2017-08-18T06:29:16.231Z,66.66
2017-08-18T06:31:08.820Z,66.75
2017-08-18T06:31:49.407Z,66.75
2017-08-18T06:32:29.990Z,66.75
2017-08-18T06:33:10.569Z,66.85
2017-08-18T06:33:51.144Z,66.56
2017-08-18T06:34:31.739Z,66.66
2017-08-18T06:35:12.313Z,66.56
2017-08-18T06:35:52.899Z,66.56
2017-08-18T06:36:33.484Z,66.66
2017-08-18T06:37:14.064Z,66.56
2017-08-18T06:37:54.649Z,66.66
2017-08-18T06:38:35.227Z,66.56
2017-08-18T06:39:15.823Z,66.66
2017-08-18T06:39:56.402Z,66.75
2017-08-18T06:40:36.989Z,66.56
2017-08-18T06:41:17.569Z,66.66
2017-08-18T06:41:58.155Z,66.85
2017-08-18T06:42:38.740Z,67.34
2017-08-18T06:43:19.327Z,67.34
2017-08-18T06:45:11.983Z,67.05
2017-08-18T06:45:52.570Z,67.14
2017-08-18T06:46:33.153Z,67.05
2017-08-18T06:47:13.736Z,66.85
2017-08-18T06:47:54.326Z,67.14
2017-08-18T06:48:34.902Z,67.44
2017-08-18T06:49:15.491Z,67.14
2017-08-18T06:49:56.078Z,67.05
2017-08-18T06:50:36.657Z,67.24
2017-08-18T06:51:17.242Z,67.34
2017-08-18T06:51:57.832Z,67.05
2017-08-18T06:52:38.417Z,67.05
2017-08-18T06:53:19.006Z,67.34
2017-08-18T06:53:59.580Z,67.14
2017-08-18T06:54:40.170Z,67.34
2017-08-18T06:55:20.757Z,66.85
2017-08-18T06:56:01.345Z,66.95
2017-08-18T06:56:41.933Z,66.66
2017-08-18T06:57:22.509Z,66.56
2017-08-18T06:58:03.084Z,66.75
2017-08-18T06:58:43.669Z,66.75
2017-08-18T06:59:24.260Z,67.34
2017-08-18T07:00:04.840Z,67.34
2017-08-18T07:00:45.431Z,66.95
2017-08-18T07:01:26.017Z,66.66
2017-08-18T07:02:06.603Z,66.75
2017-08-18T07:02:47.196Z,66.79
2017-08-18T07:03:27.785Z,66.47
2017-08-18T07:04:08.365Z,66.6
2017-08-18T07:04:48.952Z,66.37
2017-08-18T07:05:29.537Z,66.85
2017-08-18T07:06:10.128Z,66.89
2017-08-18T07:06:52.807Z,66.56
2017-08-18T07:07:33.385Z,66.85
2017-08-18T07:08:13.973Z,66.6
2017-08-18T07:08:54.562Z,66.4
2017-08-18T07:09:35.149Z,66.4
2017-08-18T07:10:15.736Z,66.47
2017-08-18T07:10:56.311Z,66.4
2017-08-18T07:11:36.899Z,66.37
2017-08-18T07:12:17.486Z,66.5
2017-08-18T07:12:58.067Z,66.47
2017-08-18T07:13:38.641Z,66.5
2017-08-18T07:14:19.228Z,66.47
2017-08-18T07:14:59.807Z,66.69
2017-08-18T07:15:40.415Z,66.4
2017-08-18T07:16:20.988Z,66.6
2017-08-18T07:17:01.580Z,66.3
2017-08-18T07:17:42.157Z,66.6
2017-08-18T07:18:22.741Z,66.6
2017-08-18T07:19:03.336Z,66.5
2017-08-18T07:19:43.929Z,66.02
2017-08-18T07:20:24.514Z,65.92
2017-08-18T07:21:05.093Z,65.82
2017-08-18T07:21:45.686Z,65.63
2017-08-18T07:22:26.266Z,66.02
2017-08-18T07:23:06.852Z,66.02
2017-08-18T07:23:47.444Z,66.02
2017-08-18T07:24:28.027Z,65.72
2017-08-18T07:25:08.622Z,65.63
2017-08-18T07:25:49.209Z,66.02
2017-08-18T07:26:29.793Z,66.02
2017-08-18T07:27:10.369Z,65.82
2017-08-18T07:27:50.958Z,66.11
2017-08-18T07:28:31.540Z,66.11
2017-08-18T07:29:12.132Z,66.02
2017-08-18T07:29:52.721Z,66.2
2017-08-18T07:30:33.310Z,65.92
2017-08-18T07:31:13.899Z,66.02
2017-08-18T07:31:54.474Z,66.3
2017-08-18T07:32:35.062Z,66.2
2017-08-18T07:33:15.647Z,66.02
2017-08-18T07:33:56.233Z,66.02
2017-08-18T07:34:36.826Z,66.11
2017-08-18T07:35:17.408Z,66.02
2017-08-18T07:35:57.996Z,66.11
2017-08-18T07:36:38.578Z,66.2
2017-08-18T07:37:19.166Z,65.82
2017-08-18T07:37:59.755Z,65.92
2017-08-18T07:38:40.335Z,66.11
2017-08-18T07:39:20.924Z,66.2
2017-08-18T07:40:01.511Z,65.92
2017-08-18T07:40:42.101Z,65.92
2017-08-18T07:41:22.686Z,66.02
2017-08-18T07:42:03.273Z,66.2
2017-08-18T07:42:43.855Z,66.4
2017-08-18T07:43:24.451Z,65.82
2017-08-18T07:44:05.034Z,66.2
2017-08-18T07:44:45.624Z,65.92
2017-08-18T07:45:26.188Z,66.2
2017-08-18T07:46:06.788Z,66.2
2017-08-18T07:46:47.376Z,66.2
2017-08-18T07:47:27.960Z,66.2
2017-08-18T07:48:08.543Z,66.02
2017-08-18T07:48:49.138Z,66.2
2017-08-18T07:49:29.727Z,66.11
2017-08-18T07:50:10.310Z,66.02
2017-08-18T07:50:50.899Z,65.92
2017-08-18T07:51:31.481Z,66.2
2017-08-18T07:52:12.062Z,66.11
2017-08-18T07:52:52.634Z,66.2
2017-08-18T07:53:33.227Z,66.02
2017-08-18T07:54:13.810Z,66.02
2017-08-18T07:54:54.404Z,65.92
2017-08-18T07:55:34.985Z,66.11
2017-08-18T07:56:15.576Z,65.92
2017-08-18T07:56:56.156Z,65.92
2017-08-18T07:57:36.758Z,66.11
2017-08-18T07:58:17.350Z,66.02
2017-08-18T07:58:57.941Z,65.92
2017-08-18T07:59:38.515Z,66.02
2017-08-18T08:00:19.096Z,65.72
2017-08-18T08:00:59.683Z,66.02
2017-08-18T08:01:40.282Z,65.72
2017-08-18T08:02:20.848Z,65.82
2017-08-18T08:03:01.434Z,65.72
2017-08-18T08:03:42.016Z,65.82
2017-08-18T08:04:22.604Z,66.02
2017-08-18T08:05:03.184Z,66.02
2017-08-18T08:05:43.766Z,66.02
2017-08-18T08:06:24.359Z,65.72
2017-08-18T08:07:04.950Z,65.92
2017-08-18T08:07:45.539Z,66.11
2017-08-18T08:08:26.124Z,66.2
2017-08-18T08:09:06.709Z,66.2
2017-08-18T08:09:47.301Z,66.11
2017-08-18T08:10:27.869Z,66.11
2017-08-18T08:11:08.459Z,66.11
2017-08-18T08:11:49.037Z,65.92
2017-08-18T08:12:29.614Z,65.92
2017-08-18T08:13:10.196Z,65.92
2017-08-18T08:13:50.778Z,66.02
2017-08-18T08:14:31.359Z,66.2
2017-08-18T08:15:11.938Z,66.11
2017-08-18T08:15:52.525Z,66.2
2017-08-18T08:16:33.097Z,66.2
2017-08-18T08:17:13.693Z,65.82
2017-08-18T08:17:54.274Z,66.2
2017-08-18T08:18:34.850Z,66.2
2017-08-18T08:19:15.440Z,65.92
2017-08-18T08:19:56.029Z,65.82
2017-08-18T08:22:14.538Z,66.2
2017-08-18T08:22:55.121Z,66.2
2017-08-18T08:23:35.701Z,66.2
2017-08-18T08:24:16.290Z,66.11
2017-08-18T08:24:56.877Z,65.92
2017-08-18T08:25:37.459Z,66.4
2017-08-18T08:26:18.045Z,66.02
2017-08-18T08:26:58.633Z,66.2
2017-08-18T08:27:39.221Z,65.92
2017-08-18T08:28:19.811Z,66.2
2017-08-18T08:29:00.392Z,66.11
2017-08-18T08:29:40.967Z,66.11
2017-08-18T08:30:21.559Z,66.11
2017-08-18T08:31:02.146Z,66.02
2017-08-18T08:31:42.718Z,66.79
2017-08-18T08:32:23.302Z,66.79
2017-08-18T08:33:03.882Z,67.08
2017-08-18T08:33:44.458Z,67.18
2017-08-18T08:34:25.045Z,67.27
2017-08-18T08:35:05.636Z,66.89
2017-08-18T08:35:46.223Z,66.99
2017-08-18T08:36:26.800Z,67.5
2017-08-18T08:37:07.387Z,67.37
2017-08-18T08:37:47.962Z,66.99
2017-08-18T08:38:28.556Z,66.89
2017-08-18T08:39:09.144Z,67.08
2017-08-18T08:39:49.733Z,67.08
2017-08-18T08:40:30.309Z,67.37
2017-08-18T08:41:10.906Z,67.18
2017-08-18T08:41:51.490Z,67.37
2017-08-18T08:42:32.074Z,67.66
2017-08-18T08:43:12.665Z,67.95
2017-08-18T08:43:53.257Z,68.08
2017-08-18T08:44:33.859Z,67.66
2017-08-18T08:45:14.453Z,67.69
2017-08-18T08:45:55.038Z,67.66
2017-08-18T08:46:35.614Z,67.57
2017-08-18T08:47:16.187Z,67.66
2017-08-18T08:47:56.776Z,67.95
2017-08-18T08:48:37.368Z,67.95
2017-08-18T08:49:28.583Z,67.85
2017-08-18T08:50:09.171Z,67.89
2017-08-18T08:50:49.839Z,67.99
2017-08-18T08:51:30.428Z,67.95
2017-08-18T08:52:11.015Z,67.69
2017-08-18T08:52:51.605Z,67.69
2017-08-18T08:53:32.188Z,68.08
2017-08-18T08:54:12.780Z,67.66
2017-08-18T08:54:53.355Z,67.89
2017-08-18T08:55:33.938Z,67.89
2017-08-18T08:56:14.516Z,67.89
2017-08-18T08:56:55.107Z,67.95
2017-08-18T08:57:35.692Z,67.85
2017-08-18T08:58:16.283Z,67.89
2017-08-18T08:58:56.864Z,67.95
2017-08-18T08:59:37.458Z,67.95
2017-08-18T09:00:18.018Z,67.89
2017-08-18T09:00:58.608Z,67.89
2017-08-18T09:01:39.199Z,67.66
2017-08-18T09:02:19.786Z,67.66
2017-08-18T09:03:00.376Z,67.89
2017-08-18T09:03:40.958Z,67.89
2017-08-18T09:04:21.538Z,67.95
2017-08-18T09:05:02.124Z,67.99
2017-08-18T09:05:42.708Z,67.89
2017-08-18T09:06:23.296Z,67.6
2017-08-18T09:07:03.879Z,67.37
2017-08-18T09:07:44.463Z,67.4
2017-08-18T09:08:25.054Z,67.37
2017-08-18T09:09:05.631Z,67.47
2017-08-18T09:09:46.224Z,67.27
2017-08-18T09:10:26.794Z,67.47
2017-08-18T09:11:07.379Z,67.37
2017-08-18T09:11:47.962Z,67.4
2017-08-18T09:12:28.552Z,67.4
2017-08-18T09:13:09.136Z,67.4
2017-08-18T09:13:49.726Z,67.5
2017-08-18T09:14:30.305Z,66.92
2017-08-18T09:15:10.892Z,66.99